weather.gov     
National Weather Service

Terminal Aerodrome Forecast
NWS Homepage
This page is being discontinued on March 12, 2014.
The same data is available at this site. Please update your bookmarks.
Thank you, and we apologize for the inconvenience.
Please send an email to SR-SRH.Webmaster@noaa.gov with any concerns.


Current Version
Previous Version:    01  02  03  04  05  06  07  08  09  10  11  12  13  14  15  16  17  18  19  20  21  22  23  24  25  26  27  28  29  
[Printable]
679
FTUS46 KSEW 231800 AAA
TAFHQM
TAF AMD
KHQM 231855Z 2319/2418 18004KT P6SM VCSH BKN029 OVC040
      TEMPO 2319/2322 2SM -RA BR BKN020 OVC035
     FM232200 14009KT P6SM -RA OVC015
     FM240100 14012G22KT 4SM -RA BR OVC015
     FM241400 21015G23KT 4SM -SHRA OVC015=


U.S. Dept. of Commerce
NOAA National Weather Service
1325 East West Highway
Silver Spring, MD 20910
E-mail: w-nws.webmaster@noaa.gov
Page last modified: May 16, 2007
NATIONAL WEATHER SERVICE: for Safety, for Work, for Fun - FOR LIFE